Campo Largo, Brazil
Current Conditions -  °F | °C
As of 3:00 PM on Thursday 30 Oct 2014 (Local Time) from SBBI Reporting Station
Few Clouds Few Clouds  
Wind Chill: 86°   Ceiling: Unl
Heat Index: 86°   Visibility: 6mi
Dew Point: 46°   Wind: 3mph
Humidity: 25%   Direction: 290°WNW
Pressure: 29.88"   Gusts: 15mph
Location:  25.44°S, 49.54°W
Report Text: SBBI 301700Z 29003G13KT 9999 FEW040 30/08 Q1012
Loading
Personal Weather Stations






























Interactive Weather Map
Tropical Storm Tracking
New forecast layout! Learn more

10-Day Weather Forecast

Advertisements
Track Severe Weather on mobile